Airfield :
LOGIN :

Register | Disclaimer

   EN    FR    IT 

 










Legend :    VFR   Marginal VFR   IFR   Intensive IFR   Very Intensive IFR
Visi :
Ceiling :
>= 8 km
>= 3000ft
5 to 8 km
1000 to 3000 ft
1500m to 5 km
500 to 1000 ft
800 to 1500m
200 to 500 ft
< 800m
< 200 ft
Symbols :   Thunderstorms  Fog  Heavy snow  Heavy precipitations  Wind > 20 kt
SIGMETs :     Misc.  Thunderstorms  Icing  Turbulence  Mountain Waves  Volcanic Ashes







- Airport Elevation : 13 ft
- IATA code : CEQ
- Download approach charts


LFMD - Cannes Mandelieu

CURRENT METAR :
  • 172030Z AUTO 01005KT 330V060 9999 BKN098 11/M02 Q1019

EXPIRED METARs :
  • 172000Z AUTO 01005KT 320V050 CAVOK 11/M02 Q1019
  • 171930Z AUTO VRB03KT 9999 OVC098 10/M00 Q1019
  • 171900Z AUTO 02003KT 330V070 9999 SCT094 SCT110 11/M02 Q1018 NOSIG
  • 171830Z AUTO 03004KT 350V090 9999 BKN100 11/M03 Q1019 NOSIG
  • 171800Z AUTO VRB03KT CAVOK 12/M03 Q1019 NOSIG

TAF TAF LFMD
Valid from the 17 at 15:00 until the 18 at 15:00 UTC


171400Z 1715/1815 08015G25KT CAVOK
BECMG 1717/1719 36010KT
BECMG 1810/1812 08020G30KT
ATIS : +33 4 93 48 73 23
No reported NOTAMs for that airfield.
2 SIGMETs reported for the Marseille FIR (LFMM) :
 
Severe turbulence
LFMM SIGMET 5 VALID 172100/180100 LFPW
LFMM MARSEILLE FIR/UIR SEV TURB FCST WI N4500 E00700 - N4400 E00700 - N4315 E00945 - N4215 E00815 - N4300 E00530 - N4500 E00615 - N4500 E00700 SFC/FL070 STNR NC=
Embedded thunderstorms
LFMM SIGMET 4 VALID 171800/172200 LFPW
LFMM MARSEILLE FIR/UIR EMBD TS FCST WI N4145 E00945 - N4115 E00945 - N4115 E00800 - N3900 E00800 - N3900 E00615 - N4215 E00730 - N4145 E00945 TOP FL260 STNR NC=



MET'MAP, your aeronautical weather chart ! - Copyright ORBIFLY December 2007 - Disclaimer

ORBIFLY MET'MAP TEAM :

Programming & Development : Alexandra Zaïnal
Concept & Development : Baudouin d'Aumeries
Co-Development & Prog : Marc-Olivier Méhu
Technical & hardware support : Manuel Goepfert

Contact : metmap@orbifly.com




SOURCES & CREDITS :

   NOAA